This is the latest recevied weather packets stored in our database for station/object KF0PEC-15. If no packets are shown the sender has not sent any weather packets the latest 10 day(s).
| Time | Temp. | Humidity | Pressure | Rain* | Wind** | Luminosity | Snow |
|---|---|---|---|---|---|---|---|
| 1777407090 | 14.44° C | 43% | 1012.2 hPa | 0 mm | - | 813 W/m² | - |
| 1777406555 | 13.89° C | 43% | 1012.7 hPa | 0 mm | - | 593 W/m² | - |
| 1777406050 | 15° C | 42% | 1011.9 hPa | 0 mm | - | 272 W/m² | - |
| 1777405485 | 13.33° C | 45% | 1013 hPa | 0 mm | - | 636 W/m² | - |
| 1777404915 | 13.89° C | 45% | 1012.7 hPa | 0 mm | - | 509 W/m² | - |
| 1777404360 | 13.89° C | 44% | 1013 hPa | 0 mm | - | 380 W/m² | - |
| 1777403780 | 12.78° C | 46% | 1013.6 hPa | 0 mm | - | 318 W/m² | - |
| 1777403260 | 13.33° C | 47% | 1013.4 hPa | 0 mm | - | 612 W/m² | - |
| 1777402765 | 12.78° C | 46% | 1014 hPa | 0 mm | - | 488 W/m² | - |
| 1777402260 | 12.22° C | 47% | 1014.3 hPa | 0 mm | - | 727 W/m² | - |
| 1777401766 | 11.67° C | 49% | 1015.1 hPa | 0 mm | - | 600 W/m² | - |
| 1777401175 | 11.67° C | 52% | 1015.3 hPa | 0 mm | - | 695 W/m² | - |
| 1777400610 | 12.22° C | 51% | 1015 hPa | 0 mm | - | 848 W/m² | - |
| 1777400060 | 11.67° C | 51% | 1015.4 hPa | 0 mm | - | 891 W/m² | - |
| 1777399505 | 11.67° C | 53% | 1015.5 hPa | 0 mm | - | 853 W/m² | - |
| 1777398940 | 11.11° C | 54% | 1015.9 hPa | 0 mm | - | 814 W/m² | - |
| 1777398440 | 10.56° C | 55% | 1016.3 hPa | 0 mm | - | 842 W/m² | - |
| 1777397870 | 11.11° C | 53% | 1015.7 hPa | 0 mm | - | 718 W/m² | - |
| 1777397360 | 10° C | 57% | 1016.9 hPa | 0 mm | - | 780 W/m² | - |
| 1777396835 | 10° C | 56% | 1016.5 hPa | 0 mm | - | 758 W/m² | - |
| 1777396295 | 10° C | 57% | 1017 hPa | 0 mm | - | 741 W/m² | - |
| 1777395805 | 10° C | 58% | 1016.9 hPa | 0 mm | - | 729 W/m² | - |
| 1777395310 | 9.44° C | 59% | 1017.3 hPa | 0 mm | - | 722 W/m² | - |
| 1777394750 | 10.56° C | 57% | 1016.6 hPa | 0 mm | - | 704 W/m² | - |
| 1777394155 | 10.56° C | 57% | 1016.8 hPa | 0 mm | - | 654 W/m² | - |
* Rain latest hour (hover to see other rain measurements)
** Current wind speed in m/s (hover to see current wind gust speed)